sensor_id;sensor_type;location;lat;lon;timestamp;P1;durP1;ratioP1;P2;durP2;ratioP2
29370;SDS011;16357;52.188;7.838;2023-06-10T00:01:38;7.72;;;4.75;;
29370;SDS011;16357;52.188;7.838;2023-06-10T00:04:04;6.85;;;4.68;;
29370;SDS011;16357;52.188;7.838;2023-06-10T00:06:31;6.18;;;4.32;;
29370;SDS011;16357;52.188;7.838;2023-06-10T00:09:04;8.63;;;4.75;;
29370;SDS011;16357;52.188;7.838;2023-06-10T00:11:32;7.55;;;4.43;;
29370;SDS011;16357;52.188;7.838;2023-06-10T00:13:59;8.85;;;4.75;;
29370;SDS011;16357;52.188;7.838;2023-06-10T00:16:26;6.93;;;4.82;;
29370;SDS011;16357;52.188;7.838;2023-06-10T00:18:52;6.30;;;4.75;;
29370;SDS011;16357;52.188;7.838;2023-06-10T00:21:21;9.95;;;4.30;;
29370;SDS011;16357;52.188;7.838;2023-06-10T00:23:48;10.60;;;4.57;;
29370;SDS011;16357;52.188;7.838;2023-06-10T00:26:15;10.40;;;5.13;;
29370;SDS011;16357;52.188;7.838;2023-06-10T00:28:42;8.38;;;4.45;;
29370;SDS011;16357;52.188;7.838;2023-06-10T00:31:10;6.50;;;4.93;;
29370;SDS011;16357;52.188;7.838;2023-06-10T00:33:37;7.10;;;4.60;;
29370;SDS011;16357;52.188;7.838;2023-06-10T00:36:03;6.75;;;4.70;;
29370;SDS011;16357;52.188;7.838;2023-06-10T00:38:30;8.70;;;4.90;;
29370;SDS011;16357;52.188;7.838;2023-06-10T00:40:57;7.82;;;4.20;;
29370;SDS011;16357;52.188;7.838;2023-06-10T00:43:24;8.52;;;4.80;;
29370;SDS011;16357;52.188;7.838;2023-06-10T00:45:51;9.02;;;5.00;;
29370;SDS011;16357;52.188;7.838;2023-06-10T00:48:18;8.35;;;5.10;;
29370;SDS011;16357;52.188;7.838;2023-06-10T00:50:45;8.90;;;5.10;;
29370;SDS011;16357;52.188;7.838;2023-06-10T00:53:13;8.35;;;4.28;;
29370;SDS011;16357;52.188;7.838;2023-06-10T00:55:40;9.20;;;4.82;;
29370;SDS011;16357;52.188;7.838;2023-06-10T00:58:07;8.82;;;4.90;;
29370;SDS011;16357;52.188;7.838;2023-06-10T01:00:34;8.80;;;4.93;;
29370;SDS011;16357;52.188;7.838;2023-06-10T01:03:01;8.23;;;5.18;;
29370;SDS011;16357;52.188;7.838;2023-06-10T01:05:27;9.02;;;5.10;;
29370;SDS011;16357;52.188;7.838;2023-06-10T01:07:56;7.13;;;4.88;;
29370;SDS011;16357;52.188;7.838;2023-06-10T01:10:29;7.78;;;4.85;;
29370;SDS011;16357;52.188;7.838;2023-06-10T01:13:02;7.18;;;4.80;;
29370;SDS011;16357;52.188;7.838;2023-06-10T01:15:30;6.00;;;4.53;;
29370;SDS011;16357;52.188;7.838;2023-06-10T01:17:58;9.77;;;5.43;;
29370;SDS011;16357;52.188;7.838;2023-06-10T01:20:32;8.18;;;4.88;;
29370;SDS011;16357;52.188;7.838;2023-06-10T01:22:59;8.93;;;5.10;;
29370;SDS011;16357;52.188;7.838;2023-06-10T01:25:27;9.35;;;5.38;;
29370;SDS011;16357;52.188;7.838;2023-06-10T01:27:59;7.40;;;5.07;;
29370;SDS011;16357;52.188;7.838;2023-06-10T01:33:22;6.13;;;4.63;;
29370;SDS011;16357;52.188;7.838;2023-06-10T01:35:54;7.22;;;5.30;;
29370;SDS011;16357;52.188;7.838;2023-06-10T01:38:27;7.53;;;4.88;;
29370;SDS011;16357;52.188;7.838;2023-06-10T01:40:58;7.10;;;4.78;;
29370;SDS011;16357;52.188;7.838;2023-06-10T01:43:26;10.30;;;5.32;;
29370;SDS011;16357;52.188;7.838;2023-06-10T01:45:53;8.00;;;5.10;;
29370;SDS011;16357;52.188;7.838;2023-06-10T01:48:19;9.85;;;5.22;;
29370;SDS011;16357;52.188;7.838;2023-06-10T01:50:45;7.78;;;5.07;;
29370;SDS011;16357;52.188;7.838;2023-06-10T01:53:12;9.65;;;5.25;;
29370;SDS011;16357;52.188;7.838;2023-06-10T01:55:38;7.30;;;4.90;;
29370;SDS011;16357;52.188;7.838;2023-06-10T01:58:05;8.85;;;5.07;;
29370;SDS011;16357;52.188;7.838;2023-06-10T02:00:31;10.02;;;5.20;;
29370;SDS011;16357;52.188;7.838;2023-06-10T02:02:58;7.43;;;4.82;;
29370;SDS011;16357;52.188;7.838;2023-06-10T02:05:24;7.85;;;5.32;;
29370;SDS011;16357;52.188;7.838;2023-06-10T02:07:51;7.22;;;5.15;;
29370;SDS011;16357;52.188;7.838;2023-06-10T02:10:17;6.68;;;4.75;;
29370;SDS011;16357;52.188;7.838;2023-06-10T02:12:44;7.57;;;5.18;;
29370;SDS011;16357;52.188;7.838;2023-06-10T02:15:10;8.10;;;5.07;;
29370;SDS011;16357;52.188;7.838;2023-06-10T02:17:37;7.55;;;4.57;;
29370;SDS011;16357;52.188;7.838;2023-06-10T02:20:04;7.50;;;4.85;;
29370;SDS011;16357;52.188;7.838;2023-06-10T02:22:33;6.95;;;5.18;;
29370;SDS011;16357;52.188;7.838;2023-06-10T02:24:59;9.77;;;5.03;;
29370;SDS011;16357;52.188;7.838;2023-06-10T02:27:26;11.85;;;5.20;;
29370;SDS011;16357;52.188;7.838;2023-06-10T02:29:53;9.48;;;5.63;;
29370;SDS011;16357;52.188;7.838;2023-06-10T02:32:19;7.13;;;5.18;;
29370;SDS011;16357;52.188;7.838;2023-06-10T02:34:46;8.85;;;5.10;;
29370;SDS011;16357;52.188;7.838;2023-06-10T02:37:13;7.82;;;4.88;;
29370;SDS011;16357;52.188;7.838;2023-06-10T02:39:40;9.10;;;5.05;;
29370;SDS011;16357;52.188;7.838;2023-06-10T02:42:06;6.97;;;4.75;;
29370;SDS011;16357;52.188;7.838;2023-06-10T02:44:33;8.25;;;4.97;;
29370;SDS011;16357;52.188;7.838;2023-06-10T02:47:00;9.45;;;4.93;;
29370;SDS011;16357;52.188;7.838;2023-06-10T02:49:26;10.30;;;5.10;;
29370;SDS011;16357;52.188;7.838;2023-06-10T02:51:54;7.70;;;4.82;;
29370;SDS011;16357;52.188;7.838;2023-06-10T02:54:20;8.45;;;4.65;;
29370;SDS011;16357;52.188;7.838;2023-06-10T02:56:47;8.48;;;5.10;;
29370;SDS011;16357;52.188;7.838;2023-06-10T02:59:14;9.77;;;5.30;;
29370;SDS011;16357;52.188;7.838;2023-06-10T03:01:41;6.70;;;4.93;;
29370;SDS011;16357;52.188;7.838;2023-06-10T03:04:08;8.15;;;5.20;;
29370;SDS011;16357;52.188;7.838;2023-06-10T03:06:35;8.93;;;5.03;;
29370;SDS011;16357;52.188;7.838;2023-06-10T03:09:02;9.90;;;5.60;;
29370;SDS011;16357;52.188;7.838;2023-06-10T03:11:33;7.57;;;5.15;;
29370;SDS011;16357;52.188;7.838;2023-06-10T03:14:00;8.05;;;4.88;;
29370;SDS011;16357;52.188;7.838;2023-06-10T03:16:26;8.85;;;5.28;;
29370;SDS011;16357;52.188;7.838;2023-06-10T03:18:53;7.60;;;5.20;;
29370;SDS011;16357;52.188;7.838;2023-06-10T03:21:20;6.55;;;4.63;;
29370;SDS011;16357;52.188;7.838;2023-06-10T03:23:46;10.65;;;5.10;;
29370;SDS011;16357;52.188;7.838;2023-06-10T03:26:13;7.63;;;5.18;;
29370;SDS011;16357;52.188;7.838;2023-06-10T03:28:42;6.65;;;4.88;;
29370;SDS011;16357;52.188;7.838;2023-06-10T03:31:09;6.68;;;4.65;;
29370;SDS011;16357;52.188;7.838;2023-06-10T03:33:35;7.00;;;5.07;;
29370;SDS011;16357;52.188;7.838;2023-06-10T03:36:02;6.80;;;5.07;;
29370;SDS011;16357;52.188;7.838;2023-06-10T03:38:28;8.18;;;5.35;;
29370;SDS011;16357;52.188;7.838;2023-06-10T03:40:55;8.23;;;5.18;;
29370;SDS011;16357;52.188;7.838;2023-06-10T03:43:21;9.40;;;5.07;;
29370;SDS011;16357;52.188;7.838;2023-06-10T03:45:48;11.50;;;5.20;;
29370;SDS011;16357;52.188;7.838;2023-06-10T03:48:15;8.40;;;5.15;;
29370;SDS011;16357;52.188;7.838;2023-06-10T03:50:42;10.43;;;5.30;;
29370;SDS011;16357;52.188;7.838;2023-06-10T03:53:09;7.78;;;4.85;;
29370;SDS011;16357;52.188;7.838;2023-06-10T03:55:35;12.63;;;5.70;;
29370;SDS011;16357;52.188;7.838;2023-06-10T03:58:02;7.38;;;4.93;;
29370;SDS011;16357;52.188;7.838;2023-06-10T04:00:28;7.35;;;5.00;;
29370;SDS011;16357;52.188;7.838;2023-06-10T04:02:56;6.32;;;5.18;;
29370;SDS011;16357;52.188;7.838;2023-06-10T04:05:24;7.85;;;4.75;;
29370;SDS011;16357;52.188;7.838;2023-06-10T04:07:50;9.05;;;5.05;;
29370;SDS011;16357;52.188;7.838;2023-06-10T04:10:17;8.48;;;4.70;;
29370;SDS011;16357;52.188;7.838;2023-06-10T04:12:43;8.20;;;5.00;;
29370;SDS011;16357;52.188;7.838;2023-06-10T04:15:10;8.20;;;5.03;;
29370;SDS011;16357;52.188;7.838;2023-06-10T04:17:37;6.35;;;4.28;;
29370;SDS011;16357;52.188;7.838;2023-06-10T04:20:04;7.13;;;4.80;;
29370;SDS011;16357;52.188;7.838;2023-06-10T04:22:33;6.55;;;4.43;;
29370;SDS011;16357;52.188;7.838;2023-06-10T04:25:00;8.25;;;4.93;;
29370;SDS011;16357;52.188;7.838;2023-06-10T04:27:26;10.05;;;4.70;;
29370;SDS011;16357;52.188;7.838;2023-06-10T04:29:53;7.78;;;4.65;;
29370;SDS011;16357;52.188;7.838;2023-06-10T04:32:19;8.82;;;4.75;;
29370;SDS011;16357;52.188;7.838;2023-06-10T04:34:46;6.30;;;4.40;;
29370;SDS011;16357;52.188;7.838;2023-06-10T04:37:12;7.43;;;4.63;;
29370;SDS011;16357;52.188;7.838;2023-06-10T04:39:39;11.95;;;4.97;;
29370;SDS011;16357;52.188;7.838;2023-06-10T04:42:05;7.25;;;4.45;;
29370;SDS011;16357;52.188;7.838;2023-06-10T04:44:32;7.15;;;4.60;;
29370;SDS011;16357;52.188;7.838;2023-06-10T04:46:58;8.18;;;4.85;;
29370;SDS011;16357;52.188;7.838;2023-06-10T04:49:25;14.18;;;4.72;;
29370;SDS011;16357;52.188;7.838;2023-06-10T04:51:51;7.32;;;4.53;;
29370;SDS011;16357;52.188;7.838;2023-06-10T04:54:18;8.65;;;4.47;;
29370;SDS011;16357;52.188;7.838;2023-06-10T04:56:44;8.10;;;4.97;;
29370;SDS011;16357;52.188;7.838;2023-06-10T04:59:11;8.95;;;4.32;;
29370;SDS011;16357;52.188;7.838;2023-06-10T05:01:37;8.85;;;4.97;;
29370;SDS011;16357;52.188;7.838;2023-06-10T05:04:04;7.88;;;4.28;;
29370;SDS011;16357;52.188;7.838;2023-06-10T05:06:31;8.93;;;5.00;;
29370;SDS011;16357;52.188;7.838;2023-06-10T05:08:57;8.45;;;4.70;;
29370;SDS011;16357;52.188;7.838;2023-06-10T05:11:24;8.10;;;4.63;;
29370;SDS011;16357;52.188;7.838;2023-06-10T05:13:50;6.43;;;4.20;;
29370;SDS011;16357;52.188;7.838;2023-06-10T05:16:16;7.88;;;4.50;;
29370;SDS011;16357;52.188;7.838;2023-06-10T05:18:43;8.90;;;4.35;;
29370;SDS011;16357;52.188;7.838;2023-06-10T05:21:09;8.65;;;4.32;;
29370;SDS011;16357;52.188;7.838;2023-06-10T05:23:36;6.60;;;4.38;;
29370;SDS011;16357;52.188;7.838;2023-06-10T05:26:02;6.72;;;4.32;;
29370;SDS011;16357;52.188;7.838;2023-06-10T05:28:29;7.20;;;4.18;;
29370;SDS011;16357;52.188;7.838;2023-06-10T05:30:55;7.15;;;4.20;;
29370;SDS011;16357;52.188;7.838;2023-06-10T05:33:22;7.28;;;4.85;;
29370;SDS011;16357;52.188;7.838;2023-06-10T05:35:48;6.90;;;4.22;;
29370;SDS011;16357;52.188;7.838;2023-06-10T05:38:15;7.35;;;4.60;;
29370;SDS011;16357;52.188;7.838;2023-06-10T05:40:41;7.63;;;4.22;;
29370;SDS011;16357;52.188;7.838;2023-06-10T05:43:08;7.93;;;4.30;;
29370;SDS011;16357;52.188;7.838;2023-06-10T05:45:35;9.68;;;4.43;;
29370;SDS011;16357;52.188;7.838;2023-06-10T05:48:02;6.43;;;4.25;;
29370;SDS011;16357;52.188;7.838;2023-06-10T05:50:28;6.40;;;4.50;;
29370;SDS011;16357;52.188;7.838;2023-06-10T05:52:55;8.15;;;3.97;;
29370;SDS011;16357;52.188;7.838;2023-06-10T05:55:21;7.47;;;4.25;;
29370;SDS011;16357;52.188;7.838;2023-06-10T05:57:54;6.95;;;3.50;;
29370;SDS011;16357;52.188;7.838;2023-06-10T06:00:24;7.85;;;4.07;;
29370;SDS011;16357;52.188;7.838;2023-06-10T06:02:51;9.00;;;4.22;;
29370;SDS011;16357;52.188;7.838;2023-06-10T06:05:21;6.53;;;3.92;;
29370;SDS011;16357;52.188;7.838;2023-06-10T06:07:49;6.93;;;4.55;;
29370;SDS011;16357;52.188;7.838;2023-06-10T06:10:16;6.63;;;4.28;;
29370;SDS011;16357;52.188;7.838;2023-06-10T06:12:44;8.23;;;4.22;;
29370;SDS011;16357;52.188;7.838;2023-06-10T06:15:11;6.15;;;3.80;;
29370;SDS011;16357;52.188;7.838;2023-06-10T06:17:39;11.77;;;4.20;;
29370;SDS011;16357;52.188;7.838;2023-06-10T06:20:05;7.18;;;4.63;;
29370;SDS011;16357;52.188;7.838;2023-06-10T06:22:33;12.02;;;4.32;;
29370;SDS011;16357;52.188;7.838;2023-06-10T06:24:59;7.35;;;4.18;;
29370;SDS011;16357;52.188;7.838;2023-06-10T06:27:26;8.38;;;4.10;;
29370;SDS011;16357;52.188;7.838;2023-06-10T06:29:52;8.02;;;4.13;;
29370;SDS011;16357;52.188;7.838;2023-06-10T06:32:19;4.75;;;3.92;;
29370;SDS011;16357;52.188;7.838;2023-06-10T06:34:46;6.25;;;4.00;;
29370;SDS011;16357;52.188;7.838;2023-06-10T06:37:13;8.70;;;4.35;;
29370;SDS011;16357;52.188;7.838;2023-06-10T06:39:39;6.38;;;3.92;;
29370;SDS011;16357;52.188;7.838;2023-06-10T06:42:06;5.72;;;3.95;;
29370;SDS011;16357;52.188;7.838;2023-06-10T06:44:33;7.53;;;4.30;;
29370;SDS011;16357;52.188;7.838;2023-06-10T06:46:59;6.85;;;4.10;;
29370;SDS011;16357;52.188;7.838;2023-06-10T06:49:26;5.72;;;3.70;;
29370;SDS011;16357;52.188;7.838;2023-06-10T06:51:52;8.68;;;4.35;;
29370;SDS011;16357;52.188;7.838;2023-06-10T06:54:18;5.68;;;3.75;;
29370;SDS011;16357;52.188;7.838;2023-06-10T06:56:45;8.02;;;4.35;;
29370;SDS011;16357;52.188;7.838;2023-06-10T06:59:11;5.70;;;3.92;;
29370;SDS011;16357;52.188;7.838;2023-06-10T07:01:40;5.70;;;3.90;;
29370;SDS011;16357;52.188;7.838;2023-06-10T07:04:06;8.07;;;4.30;;
29370;SDS011;16357;52.188;7.838;2023-06-10T07:06:33;5.55;;;3.67;;
29370;SDS011;16357;52.188;7.838;2023-06-10T07:09:04;10.13;;;4.00;;
29370;SDS011;16357;52.188;7.838;2023-06-10T07:11:31;7.43;;;4.30;;
29370;SDS011;16357;52.188;7.838;2023-06-10T07:13:57;6.03;;;4.10;;
29370;SDS011;16357;52.188;7.838;2023-06-10T07:16:24;4.97;;;3.67;;
29370;SDS011;16357;52.188;7.838;2023-06-10T07:18:52;7.38;;;3.60;;
29370;SDS011;16357;52.188;7.838;2023-06-10T07:21:19;6.32;;;4.07;;
29370;SDS011;16357;52.188;7.838;2023-06-10T07:23:45;5.70;;;3.53;;
29370;SDS011;16357;52.188;7.838;2023-06-10T07:26:12;5.28;;;4.00;;
29370;SDS011;16357;52.188;7.838;2023-06-10T07:28:40;6.10;;;3.88;;
29370;SDS011;16357;52.188;7.838;2023-06-10T07:31:07;9.38;;;4.05;;
29370;SDS011;16357;52.188;7.838;2023-06-10T07:33:34;5.43;;;3.50;;
29370;SDS011;16357;52.188;7.838;2023-06-10T07:36:00;5.47;;;3.60;;
29370;SDS011;16357;52.188;7.838;2023-06-10T07:38:27;7.00;;;3.60;;
29370;SDS011;16357;52.188;7.838;2023-06-10T07:40:53;6.55;;;3.83;;
29370;SDS011;16357;52.188;7.838;2023-06-10T07:43:20;5.00;;;3.33;;
29370;SDS011;16357;52.188;7.838;2023-06-10T07:45:46;5.22;;;3.55;;
29370;SDS011;16357;52.188;7.838;2023-06-10T07:48:13;8.45;;;3.63;;
29370;SDS011;16357;52.188;7.838;2023-06-10T07:50:39;6.45;;;3.63;;
29370;SDS011;16357;52.188;7.838;2023-06-10T07:53:06;5.95;;;3.10;;
29370;SDS011;16357;52.188;7.838;2023-06-10T07:55:33;6.78;;;3.25;;
29370;SDS011;16357;52.188;7.838;2023-06-10T07:57:59;4.70;;;3.40;;
29370;SDS011;16357;52.188;7.838;2023-06-10T08:00:26;8.27;;;3.55;;
29370;SDS011;16357;52.188;7.838;2023-06-10T08:02:52;7.03;;;3.40;;
29370;SDS011;16357;52.188;7.838;2023-06-10T08:05:19;4.45;;;3.65;;
29370;SDS011;16357;52.188;7.838;2023-06-10T08:07:46;6.78;;;4.00;;
29370;SDS011;16357;52.188;7.838;2023-06-10T08:10:13;6.47;;;3.83;;
29370;SDS011;16357;52.188;7.838;2023-06-10T08:12:39;7.78;;;3.80;;
29370;SDS011;16357;52.188;7.838;2023-06-10T08:15:06;7.75;;;3.97;;
29370;SDS011;16357;52.188;7.838;2023-06-10T08:17:35;6.20;;;3.72;;
29370;SDS011;16357;52.188;7.838;2023-06-10T08:20:01;7.00;;;3.80;;
29370;SDS011;16357;52.188;7.838;2023-06-10T08:22:28;6.75;;;3.83;;
29370;SDS011;16357;52.188;7.838;2023-06-10T08:24:55;12.02;;;4.05;;
29370;SDS011;16357;52.188;7.838;2023-06-10T08:27:22;5.80;;;3.83;;
29370;SDS011;16357;52.188;7.838;2023-06-10T08:29:48;6.75;;;4.03;;
29370;SDS011;16357;52.188;7.838;2023-06-10T08:32:15;5.57;;;3.85;;
29370;SDS011;16357;52.188;7.838;2023-06-10T08:34:41;5.07;;;3.80;;
29370;SDS011;16357;52.188;7.838;2023-06-10T08:37:08;9.10;;;4.03;;
29370;SDS011;16357;52.188;7.838;2023-06-10T08:39:34;6.05;;;3.80;;
29370;SDS011;16357;52.188;7.838;2023-06-10T08:42:09;5.70;;;3.60;;
29370;SDS011;16357;52.188;7.838;2023-06-10T08:44:41;5.45;;;3.78;;
29370;SDS011;16357;52.188;7.838;2023-06-10T08:47:15;5.97;;;3.83;;
29370;SDS011;16357;52.188;7.838;2023-06-10T08:49:43;11.48;;;3.95;;
29370;SDS011;16357;52.188;7.838;2023-06-10T08:52:15;9.27;;;4.07;;
29370;SDS011;16357;52.188;7.838;2023-06-10T08:54:44;5.43;;;3.53;;
29370;SDS011;16357;52.188;7.838;2023-06-10T08:57:19;6.07;;;4.15;;
29370;SDS011;16357;52.188;7.838;2023-06-10T08:59:48;5.60;;;3.88;;
29370;SDS011;16357;52.188;7.838;2023-06-10T09:02:15;6.72;;;4.00;;
29370;SDS011;16357;52.188;7.838;2023-06-10T09:04:42;8.32;;;3.90;;
29370;SDS011;16357;52.188;7.838;2023-06-10T09:07:10;4.40;;;3.50;;
29370;SDS011;16357;52.188;7.838;2023-06-10T09:09:37;9.35;;;3.97;;
29370;SDS011;16357;52.188;7.838;2023-06-10T09:12:03;5.40;;;3.58;;
29370;SDS011;16357;52.188;7.838;2023-06-10T09:14:30;6.15;;;3.85;;
29370;SDS011;16357;52.188;7.838;2023-06-10T09:16:57;8.38;;;4.30;;
29370;SDS011;16357;52.188;7.838;2023-06-10T09:19:25;6.18;;;3.97;;
29370;SDS011;16357;52.188;7.838;2023-06-10T09:21:53;5.75;;;3.90;;
29370;SDS011;16357;52.188;7.838;2023-06-10T09:24:22;7.18;;;4.07;;
29370;SDS011;16357;52.188;7.838;2023-06-10T09:26:50;5.80;;;3.65;;
29370;SDS011;16357;52.188;7.838;2023-06-10T09:29:17;5.85;;;3.83;;
29370;SDS011;16357;52.188;7.838;2023-06-10T09:31:44;7.53;;;4.00;;
29370;SDS011;16357;52.188;7.838;2023-06-10T09:34:12;6.40;;;3.90;;
29370;SDS011;16357;52.188;7.838;2023-06-10T09:36:39;8.90;;;3.88;;
29370;SDS011;16357;52.188;7.838;2023-06-10T09:42:59;5.38;;;3.50;;
29370;SDS011;16357;52.188;7.838;2023-06-10T09:45:56;5.15;;;3.42;;
29370;SDS011;16357;52.188;7.838;2023-06-10T09:48:48;5.53;;;3.67;;
29370;SDS011;16357;52.188;7.838;2023-06-10T09:51:36;5.13;;;3.35;;
29370;SDS011;16357;52.188;7.838;2023-06-10T09:54:03;5.30;;;3.35;;
29370;SDS011;16357;52.188;7.838;2023-06-10T09:56:34;5.75;;;3.60;;
29370;SDS011;16357;52.188;7.838;2023-06-10T09:59:02;8.45;;;3.85;;
29370;SDS011;16357;52.188;7.838;2023-06-10T10:01:30;8.65;;;4.10;;
29370;SDS011;16357;52.188;7.838;2023-06-10T10:03:56;7.75;;;4.10;;
29370;SDS011;16357;52.188;7.838;2023-06-10T10:06:23;5.80;;;3.50;;
29370;SDS011;16357;52.188;7.838;2023-06-10T10:08:51;6.32;;;3.78;;
29370;SDS011;16357;52.188;7.838;2023-06-10T10:11:18;6.53;;;3.55;;
29370;SDS011;16357;52.188;7.838;2023-06-10T10:13:49;5.38;;;3.15;;
29370;SDS011;16357;52.188;7.838;2023-06-10T10:16:17;5.45;;;3.72;;
29370;SDS011;16357;52.188;7.838;2023-06-10T10:18:59;7.03;;;3.50;;
29370;SDS011;16357;52.188;7.838;2023-06-10T10:21:31;5.70;;;3.70;;
29370;SDS011;16357;52.188;7.838;2023-06-10T10:24:12;5.40;;;3.53;;
29370;SDS011;16357;52.188;7.838;2023-06-10T10:26:48;6.22;;;3.80;;
29370;SDS011;16357;52.188;7.838;2023-06-10T10:29:18;4.22;;;3.50;;
29370;SDS011;16357;52.188;7.838;2023-06-10T10:31:50;7.05;;;4.05;;
29370;SDS011;16357;52.188;7.838;2023-06-10T10:34:24;6.00;;;3.60;;
29370;SDS011;16357;52.188;7.838;2023-06-10T10:36:55;6.30;;;3.67;;
29370;SDS011;16357;52.188;7.838;2023-06-10T10:39:22;6.75;;;3.90;;
29370;SDS011;16357;52.188;7.838;2023-06-10T10:41:48;8.07;;;4.43;;
29370;SDS011;16357;52.188;7.838;2023-06-10T10:44:16;5.65;;;3.70;;
29370;SDS011;16357;52.188;7.838;2023-06-10T10:46:44;7.15;;;4.15;;
29370;SDS011;16357;52.188;7.838;2023-06-10T10:49:15;6.30;;;3.53;;
29370;SDS011;16357;52.188;7.838;2023-06-10T10:51:56;5.88;;;3.15;;
29370;SDS011;16357;52.188;7.838;2023-06-10T10:54:30;5.15;;;3.60;;
29370;SDS011;16357;52.188;7.838;2023-06-10T10:57:13;6.25;;;3.55;;
29370;SDS011;16357;52.188;7.838;2023-06-10T11:02:43;6.85;;;3.78;;
29370;SDS011;16357;52.188;7.838;2023-06-10T11:05:15;4.60;;;3.13;;
29370;SDS011;16357;52.188;7.838;2023-06-10T11:07:52;3.80;;;3.10;;
29370;SDS011;16357;52.188;7.838;2023-06-10T11:10:56;4.70;;;3.08;;
29370;SDS011;16357;52.188;7.838;2023-06-10T11:13:20;6.18;;;3.42;;
29370;SDS011;16357;52.188;7.838;2023-06-10T11:15:48;5.75;;;3.58;;
29370;SDS011;16357;52.188;7.838;2023-06-10T11:18:25;4.55;;;3.00;;
29370;SDS011;16357;52.188;7.838;2023-06-10T11:20:57;5.53;;;3.30;;
29370;SDS011;16357;52.188;7.838;2023-06-10T11:31:19;5.10;;;3.10;;
29370;SDS011;16357;52.188;7.838;2023-06-10T11:33:47;3.80;;;3.20;;
29370;SDS011;16357;52.188;7.838;2023-06-10T11:36:18;5.10;;;3.17;;
29370;SDS011;16357;52.188;7.838;2023-06-10T11:38:44;5.43;;;3.20;;
29370;SDS011;16357;52.188;7.838;2023-06-10T11:41:11;4.72;;;3.17;;
29370;SDS011;16357;52.188;7.838;2023-06-10T11:43:44;4.32;;;3.20;;
29370;SDS011;16357;52.188;7.838;2023-06-10T11:46:12;4.05;;;3.33;;
29370;SDS011;16357;52.188;7.838;2023-06-10T11:48:53;3.63;;;2.88;;
29370;SDS011;16357;52.188;7.838;2023-06-10T11:51:21;3.95;;;3.25;;
29370;SDS011;16357;52.188;7.838;2023-06-10T11:53:48;4.88;;;3.33;;
29370;SDS011;16357;52.188;7.838;2023-06-10T11:56:25;4.93;;;3.30;;
29370;SDS011;16357;52.188;7.838;2023-06-10T11:58:54;5.85;;;3.55;;
29370;SDS011;16357;52.188;7.838;2023-06-10T12:01:22;4.75;;;3.60;;
29370;SDS011;16357;52.188;7.838;2023-06-10T12:04:13;7.78;;;3.55;;
29370;SDS011;16357;52.188;7.838;2023-06-10T12:06:51;3.08;;;2.70;;
29370;SDS011;16357;52.188;7.838;2023-06-10T12:09:22;4.85;;;3.10;;
29370;SDS011;16357;52.188;7.838;2023-06-10T12:20:00;4.03;;;3.22;;
29370;SDS011;16357;52.188;7.838;2023-06-10T12:22:36;3.22;;;2.70;;
29370;SDS011;16357;52.188;7.838;2023-06-10T12:25:03;4.10;;;3.55;;
29370;SDS011;16357;52.188;7.838;2023-06-10T12:27:33;4.53;;;3.28;;
29370;SDS011;16357;52.188;7.838;2023-06-10T12:30:01;4.13;;;3.45;;
29370;SDS011;16357;52.188;7.838;2023-06-10T12:32:39;5.80;;;3.70;;
29370;SDS011;16357;52.188;7.838;2023-06-10T12:35:11;5.35;;;2.72;;
29370;SDS011;16357;52.188;7.838;2023-06-10T12:37:40;4.35;;;3.20;;
29370;SDS011;16357;52.188;7.838;2023-06-10T12:40:09;4.60;;;3.55;;
29370;SDS011;16357;52.188;7.838;2023-06-10T12:42:36;3.53;;;3.05;;
29370;SDS011;16357;52.188;7.838;2023-06-10T12:45:04;4.43;;;3.38;;
29370;SDS011;16357;52.188;7.838;2023-06-10T12:47:49;5.25;;;3.10;;
29370;SDS011;16357;52.188;7.838;2023-06-10T12:50:16;6.00;;;3.50;;
29370;SDS011;16357;52.188;7.838;2023-06-10T12:52:42;6.22;;;3.40;;
29370;SDS011;16357;52.188;7.838;2023-06-10T12:55:09;5.28;;;3.75;;
29370;SDS011;16357;52.188;7.838;2023-06-10T12:57:36;5.78;;;3.50;;
29370;SDS011;16357;52.188;7.838;2023-06-10T13:00:03;9.40;;;3.65;;
29370;SDS011;16357;52.188;7.838;2023-06-10T13:02:30;4.22;;;3.15;;
29370;SDS011;16357;52.188;7.838;2023-06-10T13:04:57;4.78;;;3.60;;
29370;SDS011;16357;52.188;7.838;2023-06-10T13:07:25;11.13;;;3.85;;
29370;SDS011;16357;52.188;7.838;2023-06-10T13:09:52;4.88;;;3.28;;
29370;SDS011;16357;52.188;7.838;2023-06-10T13:12:19;7.97;;;4.03;;
29370;SDS011;16357;52.188;7.838;2023-06-10T13:14:59;5.25;;;3.78;;
29370;SDS011;16357;52.188;7.838;2023-06-10T13:17:26;3.97;;;3.47;;
29370;SDS011;16357;52.188;7.838;2023-06-10T13:19:52;5.25;;;3.53;;
29370;SDS011;16357;52.188;7.838;2023-06-10T13:22:19;4.82;;;3.55;;
29370;SDS011;16357;52.188;7.838;2023-06-10T13:24:46;6.30;;;3.55;;
29370;SDS011;16357;52.188;7.838;2023-06-10T13:27:12;5.07;;;3.58;;
29370;SDS011;16357;52.188;7.838;2023-06-10T13:29:40;4.90;;;3.47;;
29370;SDS011;16357;52.188;7.838;2023-06-10T13:32:07;6.07;;;3.55;;
29370;SDS011;16357;52.188;7.838;2023-06-10T13:34:33;6.22;;;3.95;;
29370;SDS011;16357;52.188;7.838;2023-06-10T13:37:01;4.90;;;3.80;;
29370;SDS011;16357;52.188;7.838;2023-06-10T13:39:30;5.50;;;3.80;;
29370;SDS011;16357;52.188;7.838;2023-06-10T13:41:56;3.50;;;2.97;;
29370;SDS011;16357;52.188;7.838;2023-06-10T13:44:22;5.80;;;3.65;;
29370;SDS011;16357;52.188;7.838;2023-06-10T13:46:49;5.18;;;3.72;;
29370;SDS011;16357;52.188;7.838;2023-06-10T13:49:15;5.45;;;3.78;;
29370;SDS011;16357;52.188;7.838;2023-06-10T13:51:42;12.45;;;4.20;;
29370;SDS011;16357;52.188;7.838;2023-06-10T13:54:09;4.57;;;3.17;;
29370;SDS011;16357;52.188;7.838;2023-06-10T13:56:35;4.75;;;3.78;;
29370;SDS011;16357;52.188;7.838;2023-06-10T13:59:05;4.13;;;3.35;;
29370;SDS011;16357;52.188;7.838;2023-06-10T14:01:31;5.07;;;3.72;;
29370;SDS011;16357;52.188;7.838;2023-06-10T14:03:58;4.07;;;3.38;;
29370;SDS011;16357;52.188;7.838;2023-06-10T14:06:25;6.25;;;3.60;;
29370;SDS011;16357;52.188;7.838;2023-06-10T14:08:51;4.93;;;3.28;;
29370;SDS011;16357;52.188;7.838;2023-06-10T14:11:20;4.78;;;3.63;;
29370;SDS011;16357;52.188;7.838;2023-06-10T14:13:47;4.25;;;3.33;;
29370;SDS011;16357;52.188;7.838;2023-06-10T14:16:13;6.43;;;3.53;;
29370;SDS011;16357;52.188;7.838;2023-06-10T14:18:39;6.18;;;3.50;;
29370;SDS011;16357;52.188;7.838;2023-06-10T14:21:06;4.45;;;3.42;;
29370;SDS011;16357;52.188;7.838;2023-06-10T14:23:32;5.30;;;3.72;;
29370;SDS011;16357;52.188;7.838;2023-06-10T14:25:59;6.47;;;3.40;;
29370;SDS011;16357;52.188;7.838;2023-06-10T14:28:25;4.55;;;3.50;;
29370;SDS011;16357;52.188;7.838;2023-06-10T14:30:53;3.95;;;3.20;;
29370;SDS011;16357;52.188;7.838;2023-06-10T14:33:20;3.75;;;3.25;;
29370;SDS011;16357;52.188;7.838;2023-06-10T14:35:46;4.32;;;3.25;;
29370;SDS011;16357;52.188;7.838;2023-06-10T14:38:13;8.15;;;4.10;;
29370;SDS011;16357;52.188;7.838;2023-06-10T14:40:39;4.03;;;3.40;;
29370;SDS011;16357;52.188;7.838;2023-06-10T14:43:06;3.88;;;3.22;;
29370;SDS011;16357;52.188;7.838;2023-06-10T14:45:36;6.35;;;3.72;;
29370;SDS011;16357;52.188;7.838;2023-06-10T14:48:04;5.25;;;3.70;;
29370;SDS011;16357;52.188;7.838;2023-06-10T14:50:31;5.03;;;3.30;;
29370;SDS011;16357;52.188;7.838;2023-06-10T14:52:58;3.80;;;3.40;;
29370;SDS011;16357;52.188;7.838;2023-06-10T14:55:25;6.78;;;4.63;;
29370;SDS011;16357;52.188;7.838;2023-06-10T14:57:52;4.75;;;3.75;;
29370;SDS011;16357;52.188;7.838;2023-06-10T15:00:18;4.53;;;3.67;;
29370;SDS011;16357;52.188;7.838;2023-06-10T15:02:48;3.90;;;3.50;;
29370;SDS011;16357;52.188;7.838;2023-06-10T15:05:15;3.80;;;3.30;;
29370;SDS011;16357;52.188;7.838;2023-06-10T15:07:42;4.82;;;3.67;;
29370;SDS011;16357;52.188;7.838;2023-06-10T15:10:09;7.13;;;3.47;;
29370;SDS011;16357;52.188;7.838;2023-06-10T15:12:36;4.75;;;3.20;;
29370;SDS011;16357;52.188;7.838;2023-06-10T15:15:02;5.65;;;3.53;;
29370;SDS011;16357;52.188;7.838;2023-06-10T15:17:29;4.60;;;3.55;;
29370;SDS011;16357;52.188;7.838;2023-06-10T15:19:55;4.93;;;3.50;;